sensor_id;sensor_type;location;lat;lon;timestamp;temperature;humidity
21047;DHT22;10682;50.874;3.656;2024-03-08T00:00:56;3.90;99.90
21047;DHT22;10682;50.874;3.656;2024-03-08T00:03:24;3.90;99.90
21047;DHT22;10682;50.874;3.656;2024-03-08T00:05:51;4.00;99.90
21047;DHT22;10682;50.874;3.656;2024-03-08T00:08:18;4.00;99.90
21047;DHT22;10682;50.874;3.656;2024-03-08T00:10:46;4.00;99.90
21047;DHT22;10682;50.874;3.656;2024-03-08T00:13:13;4.00;99.90
21047;DHT22;10682;50.874;3.656;2024-03-08T00:15:40;4.00;99.90
21047;DHT22;10682;50.874;3.656;2024-03-08T00:18:08;4.00;99.90
21047;DHT22;10682;50.874;3.656;2024-03-08T00:20:35;4.00;99.90
21047;DHT22;10682;50.874;3.656;2024-03-08T00:23:03;4.00;99.90
21047;DHT22;10682;50.874;3.656;2024-03-08T00:25:31;4.00;99.90
21047;DHT22;10682;50.874;3.656;2024-03-08T00:27:58;4.00;99.90
21047;DHT22;10682;50.874;3.656;2024-03-08T00:30:26;4.10;99.90
21047;DHT22;10682;50.874;3.656;2024-03-08T00:32:54;4.10;99.90
21047;DHT22;10682;50.874;3.656;2024-03-08T00:35:21;4.10;99.90
21047;DHT22;10682;50.874;3.656;2024-03-08T00:37:49;4.00;99.90
21047;DHT22;10682;50.874;3.656;2024-03-08T00:40:17;4.00;99.90
21047;DHT22;10682;50.874;3.656;2024-03-08T00:42:44;4.00;99.90
21047;DHT22;10682;50.874;3.656;2024-03-08T00:45:11;4.00;99.90
21047;DHT22;10682;50.874;3.656;2024-03-08T00:47:39;4.00;99.90
21047;DHT22;10682;50.874;3.656;2024-03-08T00:50:07;4.10;99.90
21047;DHT22;10682;50.874;3.656;2024-03-08T00:52:36;4.00;99.90
21047;DHT22;10682;50.874;3.656;2024-03-08T00:55:04;4.00;99.90
21047;DHT22;10682;50.874;3.656;2024-03-08T00:57:31;4.00;99.90
21047;DHT22;10682;50.874;3.656;2024-03-08T00:59:59;4.00;99.90
21047;DHT22;10682;50.874;3.656;2024-03-08T01:02:28;3.90;99.90
21047;DHT22;10682;50.874;3.656;2024-03-08T01:04:57;3.90;99.90
21047;DHT22;10682;50.874;3.656;2024-03-08T01:11:00;3.80;99.90
21047;DHT22;10682;50.874;3.656;2024-03-08T01:13:27;3.90;99.90
21047;DHT22;10682;50.874;3.656;2024-03-08T01:19:28;3.70;99.90
21047;DHT22;10682;50.874;3.656;2024-03-08T01:21:59;3.60;99.90
21047;DHT22;10682;50.874;3.656;2024-03-08T01:24:26;3.50;99.90
21047;DHT22;10682;50.874;3.656;2024-03-08T01:26:53;3.50;99.90
21047;DHT22;10682;50.874;3.656;2024-03-08T01:29:20;3.50;99.90
21047;DHT22;10682;50.874;3.656;2024-03-08T01:31:48;3.50;99.90
21047;DHT22;10682;50.874;3.656;2024-03-08T01:34:15;3.40;99.90
21047;DHT22;10682;50.874;3.656;2024-03-08T01:36:42;3.40;99.90
21047;DHT22;10682;50.874;3.656;2024-03-08T01:39:10;3.40;99.90
21047;DHT22;10682;50.874;3.656;2024-03-08T01:41:37;3.40;99.90
21047;DHT22;10682;50.874;3.656;2024-03-08T01:44:04;3.30;99.90
21047;DHT22;10682;50.874;3.656;2024-03-08T01:46:34;3.30;99.90
21047;DHT22;10682;50.874;3.656;2024-03-08T01:49:02;3.40;99.90
21047;DHT22;10682;50.874;3.656;2024-03-08T01:51:30;3.40;99.90
21047;DHT22;10682;50.874;3.656;2024-03-08T01:53:58;3.40;99.90
21047;DHT22;10682;50.874;3.656;2024-03-08T01:56:27;3.40;99.90
21047;DHT22;10682;50.874;3.656;2024-03-08T01:58:55;3.40;99.90
21047;DHT22;10682;50.874;3.656;2024-03-08T02:01:23;3.40;99.90
21047;DHT22;10682;50.874;3.656;2024-03-08T02:03:50;3.30;99.90
21047;DHT22;10682;50.874;3.656;2024-03-08T02:06:17;3.40;99.90
21047;DHT22;10682;50.874;3.656;2024-03-08T02:08:45;3.40;99.90
21047;DHT22;10682;50.874;3.656;2024-03-08T02:11:14;3.40;99.90
21047;DHT22;10682;50.874;3.656;2024-03-08T02:13:42;3.40;99.90
21047;DHT22;10682;50.874;3.656;2024-03-08T02:16:10;3.40;99.90
21047;DHT22;10682;50.874;3.656;2024-03-08T02:18:38;3.50;99.90
21047;DHT22;10682;50.874;3.656;2024-03-08T02:21:06;3.50;99.90
21047;DHT22;10682;50.874;3.656;2024-03-08T02:23:35;3.50;99.90
21047;DHT22;10682;50.874;3.656;2024-03-08T02:26:04;3.40;99.90
21047;DHT22;10682;50.874;3.656;2024-03-08T02:28:32;3.40;99.90
21047;DHT22;10682;50.874;3.656;2024-03-08T02:30:59;3.40;99.90
21047;DHT22;10682;50.874;3.656;2024-03-08T02:33:27;3.40;99.90
21047;DHT22;10682;50.874;3.656;2024-03-08T02:35:56;3.50;99.90
21047;DHT22;10682;50.874;3.656;2024-03-08T02:38:24;3.40;99.90
21047;DHT22;10682;50.874;3.656;2024-03-08T02:40:53;3.40;99.90
21047;DHT22;10682;50.874;3.656;2024-03-08T02:43:22;3.40;99.90
21047;DHT22;10682;50.874;3.656;2024-03-08T02:45:51;3.40;99.90
21047;DHT22;10682;50.874;3.656;2024-03-08T02:48:23;3.40;99.90
21047;DHT22;10682;50.874;3.656;2024-03-08T02:54:17;3.40;99.90
21047;DHT22;10682;50.874;3.656;2024-03-08T02:56:59;3.50;99.90
21047;DHT22;10682;50.874;3.656;2024-03-08T02:59:27;3.50;99.90
21047;DHT22;10682;50.874;3.656;2024-03-08T03:01:54;3.50;99.90
21047;DHT22;10682;50.874;3.656;2024-03-08T03:04:22;3.50;99.90
21047;DHT22;10682;50.874;3.656;2024-03-08T03:06:49;3.50;99.90
21047;DHT22;10682;50.874;3.656;2024-03-08T03:09:16;3.40;99.90
21047;DHT22;10682;50.874;3.656;2024-03-08T03:11:50;3.40;99.90
21047;DHT22;10682;50.874;3.656;2024-03-08T03:14:22;3.40;99.90
21047;DHT22;10682;50.874;3.656;2024-03-08T03:16:49;3.50;99.90
21047;DHT22;10682;50.874;3.656;2024-03-08T03:19:16;3.50;99.90
21047;DHT22;10682;50.874;3.656;2024-03-08T03:21:44;3.40;99.90
21047;DHT22;10682;50.874;3.656;2024-03-08T03:24:12;3.40;99.90
21047;DHT22;10682;50.874;3.656;2024-03-08T03:26:39;3.40;99.90
21047;DHT22;10682;50.874;3.656;2024-03-08T03:29:07;3.40;99.90
21047;DHT22;10682;50.874;3.656;2024-03-08T03:31:35;3.40;99.90
21047;DHT22;10682;50.874;3.656;2024-03-08T03:34:04;3.30;99.90
21047;DHT22;10682;50.874;3.656;2024-03-08T03:36:34;3.30;99.90
21047;DHT22;10682;50.874;3.656;2024-03-08T03:39:04;3.30;99.90
21047;DHT22;10682;50.874;3.656;2024-03-08T03:41:37;3.20;99.90
21047;DHT22;10682;50.874;3.656;2024-03-08T03:44:05;3.20;99.90
21047;DHT22;10682;50.874;3.656;2024-03-08T03:46:33;3.20;99.90
21047;DHT22;10682;50.874;3.656;2024-03-08T03:49:00;3.20;99.90
21047;DHT22;10682;50.874;3.656;2024-03-08T03:51:28;3.20;99.90
21047;DHT22;10682;50.874;3.656;2024-03-08T03:53:56;3.20;99.90
21047;DHT22;10682;50.874;3.656;2024-03-08T03:56:27;3.10;99.90
21047;DHT22;10682;50.874;3.656;2024-03-08T03:58:54;3.20;99.90
21047;DHT22;10682;50.874;3.656;2024-03-08T04:01:22;3.10;99.90
21047;DHT22;10682;50.874;3.656;2024-03-08T04:03:49;3.10;99.90
21047;DHT22;10682;50.874;3.656;2024-03-08T04:06:17;3.10;99.90
21047;DHT22;10682;50.874;3.656;2024-03-08T04:08:44;3.10;99.90
21047;DHT22;10682;50.874;3.656;2024-03-08T04:11:11;3.10;99.90
21047;DHT22;10682;50.874;3.656;2024-03-08T04:13:38;3.10;99.90
21047;DHT22;10682;50.874;3.656;2024-03-08T04:16:06;3.10;99.90
21047;DHT22;10682;50.874;3.656;2024-03-08T04:18:35;3.20;99.90
21047;DHT22;10682;50.874;3.656;2024-03-08T04:21:02;3.20;99.90
21047;DHT22;10682;50.874;3.656;2024-03-08T04:23:36;3.10;99.90
21047;DHT22;10682;50.874;3.656;2024-03-08T04:26:03;3.10;99.90
21047;DHT22;10682;50.874;3.656;2024-03-08T04:28:34;3.10;99.90
21047;DHT22;10682;50.874;3.656;2024-03-08T04:31:01;3.00;99.90
21047;DHT22;10682;50.874;3.656;2024-03-08T04:36:38;3.00;99.90
21047;DHT22;10682;50.874;3.656;2024-03-08T04:39:30;3.00;99.90
21047;DHT22;10682;50.874;3.656;2024-03-08T04:42:02;2.90;99.90
21047;DHT22;10682;50.874;3.656;2024-03-08T04:44:32;2.90;99.90
21047;DHT22;10682;50.874;3.656;2024-03-08T04:47:00;2.90;99.90
21047;DHT22;10682;50.874;3.656;2024-03-08T04:49:27;2.80;99.90
21047;DHT22;10682;50.874;3.656;2024-03-08T04:51:55;2.80;99.90
21047;DHT22;10682;50.874;3.656;2024-03-08T04:54:22;2.80;99.90
21047;DHT22;10682;50.874;3.656;2024-03-08T04:56:50;2.90;99.90
21047;DHT22;10682;50.874;3.656;2024-03-08T04:59:18;2.90;99.90
21047;DHT22;10682;50.874;3.656;2024-03-08T05:01:45;2.90;99.90
21047;DHT22;10682;50.874;3.656;2024-03-08T05:04:14;2.80;99.90
21047;DHT22;10682;50.874;3.656;2024-03-08T05:06:42;2.80;99.90
21047;DHT22;10682;50.874;3.656;2024-03-08T05:09:09;2.80;99.90
21047;DHT22;10682;50.874;3.656;2024-03-08T05:11:43;2.70;99.90
21047;DHT22;10682;50.874;3.656;2024-03-08T05:14:11;2.70;99.90
21047;DHT22;10682;50.874;3.656;2024-03-08T05:16:49;2.70;99.90
21047;DHT22;10682;50.874;3.656;2024-03-08T05:19:20;2.60;99.90
21047;DHT22;10682;50.874;3.656;2024-03-08T05:21:49;2.60;99.90
21047;DHT22;10682;50.874;3.656;2024-03-08T05:24:17;2.60;99.90
21047;DHT22;10682;50.874;3.656;2024-03-08T05:26:46;2.60;99.90
21047;DHT22;10682;50.874;3.656;2024-03-08T05:29:14;2.60;99.90
21047;DHT22;10682;50.874;3.656;2024-03-08T05:31:51;2.60;99.90
21047;DHT22;10682;50.874;3.656;2024-03-08T05:34:20;2.60;99.90
21047;DHT22;10682;50.874;3.656;2024-03-08T05:36:48;2.70;99.90
21047;DHT22;10682;50.874;3.656;2024-03-08T05:39:19;2.60;99.90
21047;DHT22;10682;50.874;3.656;2024-03-08T05:41:51;2.60;99.90
21047;DHT22;10682;50.874;3.656;2024-03-08T05:44:18;2.60;99.90
21047;DHT22;10682;50.874;3.656;2024-03-08T05:46:46;2.60;99.90
21047;DHT22;10682;50.874;3.656;2024-03-08T05:49:14;2.60;99.90
21047;DHT22;10682;50.874;3.656;2024-03-08T05:51:42;2.60;99.90
21047;DHT22;10682;50.874;3.656;2024-03-08T05:54:11;2.60;99.90
21047;DHT22;10682;50.874;3.656;2024-03-08T05:56:43;2.60;99.90
21047;DHT22;10682;50.874;3.656;2024-03-08T05:59:13;2.60;99.90
21047;DHT22;10682;50.874;3.656;2024-03-08T06:01:41;2.50;99.90
21047;DHT22;10682;50.874;3.656;2024-03-08T06:04:09;2.50;99.90
21047;DHT22;10682;50.874;3.656;2024-03-08T06:06:39;2.50;99.90
21047;DHT22;10682;50.874;3.656;2024-03-08T06:09:09;2.50;99.90
21047;DHT22;10682;50.874;3.656;2024-03-08T06:11:39;2.50;99.90
21047;DHT22;10682;50.874;3.656;2024-03-08T06:14:08;2.50;99.90
21047;DHT22;10682;50.874;3.656;2024-03-08T06:20:08;2.40;99.90
21047;DHT22;10682;50.874;3.656;2024-03-08T06:25:48;2.40;99.90
21047;DHT22;10682;50.874;3.656;2024-03-08T06:28:15;2.40;99.90
21047;DHT22;10682;50.874;3.656;2024-03-08T06:30:43;2.50;99.90
21047;DHT22;10682;50.874;3.656;2024-03-08T06:33:10;2.50;99.90
21047;DHT22;10682;50.874;3.656;2024-03-08T06:35:38;2.60;99.90
21047;DHT22;10682;50.874;3.656;2024-03-08T06:38:05;2.60;99.90
21047;DHT22;10682;50.874;3.656;2024-03-08T06:40:33;2.70;99.90
21047;DHT22;10682;50.874;3.656;2024-03-08T06:43:00;2.70;99.90
21047;DHT22;10682;50.874;3.656;2024-03-08T06:45:27;2.70;99.90
21047;DHT22;10682;50.874;3.656;2024-03-08T06:47:55;2.80;99.90
21047;DHT22;10682;50.874;3.656;2024-03-08T06:50:25;2.80;99.90
21047;DHT22;10682;50.874;3.656;2024-03-08T06:52:52;2.90;99.90
21047;DHT22;10682;50.874;3.656;2024-03-08T06:55:20;2.90;99.90
21047;DHT22;10682;50.874;3.656;2024-03-08T06:57:47;3.00;99.90
21047;DHT22;10682;50.874;3.656;2024-03-08T07:00:15;3.00;99.90
21047;DHT22;10682;50.874;3.656;2024-03-08T07:02:46;3.10;99.90
21047;DHT22;10682;50.874;3.656;2024-03-08T07:05:15;3.20;99.90
21047;DHT22;10682;50.874;3.656;2024-03-08T07:07:43;3.20;99.90
21047;DHT22;10682;50.874;3.656;2024-03-08T07:10:11;3.20;99.90
21047;DHT22;10682;50.874;3.656;2024-03-08T07:12:41;3.30;99.90
21047;DHT22;10682;50.874;3.656;2024-03-08T07:15:09;3.30;99.90
21047;DHT22;10682;50.874;3.656;2024-03-08T07:17:41;3.40;99.90
21047;DHT22;10682;50.874;3.656;2024-03-08T07:20:20;3.40;99.90
21047;DHT22;10682;50.874;3.656;2024-03-08T07:22:48;3.50;99.90
21047;DHT22;10682;50.874;3.656;2024-03-08T07:25:18;3.50;99.90
21047;DHT22;10682;50.874;3.656;2024-03-08T07:27:49;3.50;99.90
21047;DHT22;10682;50.874;3.656;2024-03-08T07:30:24;3.60;99.90
21047;DHT22;10682;50.874;3.656;2024-03-08T07:33:21;3.60;99.90
21047;DHT22;10682;50.874;3.656;2024-03-08T07:35:49;3.70;99.90
21047;DHT22;10682;50.874;3.656;2024-03-08T07:38:17;3.80;99.90
21047;DHT22;10682;50.874;3.656;2024-03-08T07:40:48;3.90;99.90
21047;DHT22;10682;50.874;3.656;2024-03-08T07:43:15;4.00;99.90
21047;DHT22;10682;50.874;3.656;2024-03-08T07:45:43;4.10;99.90
21047;DHT22;10682;50.874;3.656;2024-03-08T07:48:10;4.20;99.90
21047;DHT22;10682;50.874;3.656;2024-03-08T07:50:38;4.20;99.90
21047;DHT22;10682;50.874;3.656;2024-03-08T07:53:07;4.30;99.90
21047;DHT22;10682;50.874;3.656;2024-03-08T07:55:36;4.40;99.90
21047;DHT22;10682;50.874;3.656;2024-03-08T07:58:04;4.80;99.90
21047;DHT22;10682;50.874;3.656;2024-03-08T08:06:57;6.50;99.90
21047;DHT22;10682;50.874;3.656;2024-03-08T08:09:24;7.20;99.90
21047;DHT22;10682;50.874;3.656;2024-03-08T08:12:01;8.00;99.90
21047;DHT22;10682;50.874;3.656;2024-03-08T08:14:30;8.70;99.90
21047;DHT22;10682;50.874;3.656;2024-03-08T08:16:57;8.90;99.90
21047;DHT22;10682;50.874;3.656;2024-03-08T08:19:27;9.10;99.90
21047;DHT22;10682;50.874;3.656;2024-03-08T08:21:55;9.60;99.90
21047;DHT22;10682;50.874;3.656;2024-03-08T08:24:22;9.70;99.90
21047;DHT22;10682;50.874;3.656;2024-03-08T08:26:50;9.80;99.90
21047;DHT22;10682;50.874;3.656;2024-03-08T08:29:17;10.00;99.90
21047;DHT22;10682;50.874;3.656;2024-03-08T08:31:44;9.90;99.90
21047;DHT22;10682;50.874;3.656;2024-03-08T08:34:12;9.80;99.90
21047;DHT22;10682;50.874;3.656;2024-03-08T08:36:40;9.90;99.90
21047;DHT22;10682;50.874;3.656;2024-03-08T08:39:07;10.00;99.90
21047;DHT22;10682;50.874;3.656;2024-03-08T08:41:40;10.00;99.90
21047;DHT22;10682;50.874;3.656;2024-03-08T08:44:08;10.20;99.90
21047;DHT22;10682;50.874;3.656;2024-03-08T08:46:42;10.30;99.90
21047;DHT22;10682;50.874;3.656;2024-03-08T08:49:09;10.30;99.90
21047;DHT22;10682;50.874;3.656;2024-03-08T08:51:49;10.40;99.90
21047;DHT22;10682;50.874;3.656;2024-03-08T08:54:19;10.40;99.90
21047;DHT22;10682;50.874;3.656;2024-03-08T08:56:47;10.40;99.90
21047;DHT22;10682;50.874;3.656;2024-03-08T08:59:14;10.60;99.90
21047;DHT22;10682;50.874;3.656;2024-03-08T09:01:46;10.80;99.90
21047;DHT22;10682;50.874;3.656;2024-03-08T09:04:14;10.70;99.90
21047;DHT22;10682;50.874;3.656;2024-03-08T09:06:41;10.60;99.90
21047;DHT22;10682;50.874;3.656;2024-03-08T09:09:08;10.50;99.90
21047;DHT22;10682;50.874;3.656;2024-03-08T09:11:37;10.60;99.90
21047;DHT22;10682;50.874;3.656;2024-03-08T09:14:08;10.70;99.90
21047;DHT22;10682;50.874;3.656;2024-03-08T09:20:02;10.60;99.90
21047;DHT22;10682;50.874;3.656;2024-03-08T09:22:31;10.60;99.90
21047;DHT22;10682;50.874;3.656;2024-03-08T09:24:58;10.50;99.90
21047;DHT22;10682;50.874;3.656;2024-03-08T09:27:25;10.40;99.90
21047;DHT22;10682;50.874;3.656;2024-03-08T09:29:53;10.20;99.90
21047;DHT22;10682;50.874;3.656;2024-03-08T09:32:20;10.10;99.90
21047;DHT22;10682;50.874;3.656;2024-03-08T09:34:49;10.20;99.90
21047;DHT22;10682;50.874;3.656;2024-03-08T09:37:18;10.20;99.90
21047;DHT22;10682;50.874;3.656;2024-03-08T09:39:45;10.00;99.90
21047;DHT22;10682;50.874;3.656;2024-03-08T09:42:51;10.20;99.90
21047;DHT22;10682;50.874;3.656;2024-03-08T09:45:45;10.40;99.90
21047;DHT22;10682;50.874;3.656;2024-03-08T09:48:28;10.20;99.90
21047;DHT22;10682;50.874;3.656;2024-03-08T09:50:56;10.10;99.90
21047;DHT22;10682;50.874;3.656;2024-03-08T09:53:23;10.00;99.90
21047;DHT22;10682;50.874;3.656;2024-03-08T09:55:50;9.90;99.90
21047;DHT22;10682;50.874;3.656;2024-03-08T09:58:19;9.70;99.90
21047;DHT22;10682;50.874;3.656;2024-03-08T10:00:46;9.80;99.90
21047;DHT22;10682;50.874;3.656;2024-03-08T10:03:13;9.80;99.90
21047;DHT22;10682;50.874;3.656;2024-03-08T10:05:43;9.90;99.90
21047;DHT22;10682;50.874;3.656;2024-03-08T10:08:14;9.90;99.90
21047;DHT22;10682;50.874;3.656;2024-03-08T10:10:41;9.80;99.90
21047;DHT22;10682;50.874;3.656;2024-03-08T10:13:10;9.90;99.90
21047;DHT22;10682;50.874;3.656;2024-03-08T10:15:39;9.90;99.90
21047;DHT22;10682;50.874;3.656;2024-03-08T10:18:07;10.00;99.90
21047;DHT22;10682;50.874;3.656;2024-03-08T10:20:34;9.90;99.90
21047;DHT22;10682;50.874;3.656;2024-03-08T10:23:03;10.00;99.90
21047;DHT22;10682;50.874;3.656;2024-03-08T10:25:37;10.00;99.90
21047;DHT22;10682;50.874;3.656;2024-03-08T10:28:05;10.10;99.90
21047;DHT22;10682;50.874;3.656;2024-03-08T10:30:33;10.00;99.90
21047;DHT22;10682;50.874;3.656;2024-03-08T10:33:00;9.90;99.90
21047;DHT22;10682;50.874;3.656;2024-03-08T10:35:29;10.10;99.90
21047;DHT22;10682;50.874;3.656;2024-03-08T10:37:58;10.30;99.90
21047;DHT22;10682;50.874;3.656;2024-03-08T10:40:28;10.50;99.90
21047;DHT22;10682;50.874;3.656;2024-03-08T10:43:00;10.50;99.90
21047;DHT22;10682;50.874;3.656;2024-03-08T10:45:39;10.60;99.90
21047;DHT22;10682;50.874;3.656;2024-03-08T10:48:15;10.70;99.90
21047;DHT22;10682;50.874;3.656;2024-03-08T10:50:47;10.70;99.90
21047;DHT22;10682;50.874;3.656;2024-03-08T10:53:18;10.80;99.90
21047;DHT22;10682;50.874;3.656;2024-03-08T10:55:49;10.90;99.90
21047;DHT22;10682;50.874;3.656;2024-03-08T10:58:23;11.00;99.90
21047;DHT22;10682;50.874;3.656;2024-03-08T11:00:54;11.10;99.90
21047;DHT22;10682;50.874;3.656;2024-03-08T11:06:42;11.10;99.90
21047;DHT22;10682;50.874;3.656;2024-03-08T11:09:39;11.10;99.90
21047;DHT22;10682;50.874;3.656;2024-03-08T11:12:26;11.10;99.90
21047;DHT22;10682;50.874;3.656;2024-03-08T11:15:01;11.30;99.90
21047;DHT22;10682;50.874;3.656;2024-03-08T11:20:13;11.40;99.90
21047;DHT22;10682;50.874;3.656;2024-03-08T11:22:54;11.40;99.90
21047;DHT22;10682;50.874;3.656;2024-03-08T11:25:40;11.40;99.90
21047;DHT22;10682;50.874;3.656;2024-03-08T11:34:32;11.90;99.90
21047;DHT22;10682;50.874;3.656;2024-03-08T11:37:10;12.10;99.90
21047;DHT22;10682;50.874;3.656;2024-03-08T11:39:40;12.30;99.90
21047;DHT22;10682;50.874;3.656;2024-03-08T11:42:31;12.30;99.90
21047;DHT22;10682;50.874;3.656;2024-03-08T11:44:58;12.30;99.90
21047;DHT22;10682;50.874;3.656;2024-03-08T11:47:26;12.40;99.90
21047;DHT22;10682;50.874;3.656;2024-03-08T11:49:53;12.50;99.90
21047;DHT22;10682;50.874;3.656;2024-03-08T11:52:20;12.60;99.90
21047;DHT22;10682;50.874;3.656;2024-03-08T11:54:52;12.60;99.90
21047;DHT22;10682;50.874;3.656;2024-03-08T11:57:26;12.50;99.90
21047;DHT22;10682;50.874;3.656;2024-03-08T11:59:56;12.60;99.90
21047;DHT22;10682;50.874;3.656;2024-03-08T12:02:24;12.70;99.90
21047;DHT22;10682;50.874;3.656;2024-03-08T12:04:59;12.90;99.90
21047;DHT22;10682;50.874;3.656;2024-03-08T12:07:28;12.90;99.90
21047;DHT22;10682;50.874;3.656;2024-03-08T12:10:19;12.80;99.90
21047;DHT22;10682;50.874;3.656;2024-03-08T12:12:53;12.70;99.90
21047;DHT22;10682;50.874;3.656;2024-03-08T12:15:22;12.80;99.90
21047;DHT22;10682;50.874;3.656;2024-03-08T12:17:52;12.90;99.90
21047;DHT22;10682;50.874;3.656;2024-03-08T12:20:27;12.90;99.90
21047;DHT22;10682;50.874;3.656;2024-03-08T12:22:59;13.00;99.90
21047;DHT22;10682;50.874;3.656;2024-03-08T12:25:33;12.90;99.90
21047;DHT22;10682;50.874;3.656;2024-03-08T12:28:08;13.00;99.90
21047;DHT22;10682;50.874;3.656;2024-03-08T12:30:49;13.10;99.90
21047;DHT22;10682;50.874;3.656;2024-03-08T12:33:21;13.00;99.90
21047;DHT22;10682;50.874;3.656;2024-03-08T12:35:54;13.10;99.90
21047;DHT22;10682;50.874;3.656;2024-03-08T12:38:23;13.20;99.90
21047;DHT22;10682;50.874;3.656;2024-03-08T12:40:58;13.20;99.90
21047;DHT22;10682;50.874;3.656;2024-03-08T12:43:26;13.10;99.90
21047;DHT22;10682;50.874;3.656;2024-03-08T12:45:58;13.20;99.90
21047;DHT22;10682;50.874;3.656;2024-03-08T12:48:25;13.20;99.90
21047;DHT22;10682;50.874;3.656;2024-03-08T12:50:53;13.20;99.90
21047;DHT22;10682;50.874;3.656;2024-03-08T12:53:20;13.30;99.90
21047;DHT22;10682;50.874;3.656;2024-03-08T12:55:50;13.50;99.90
21047;DHT22;10682;50.874;3.656;2024-03-08T12:58:35;13.80;99.90
21047;DHT22;10682;50.874;3.656;2024-03-08T13:04:42;14.10;99.90
21047;DHT22;10682;50.874;3.656;2024-03-08T13:07:09;13.90;99.90
21047;DHT22;10682;50.874;3.656;2024-03-08T13:09:39;14.00;99.90
21047;DHT22;10682;50.874;3.656;2024-03-08T13:12:34;14.00;99.90
21047;DHT22;10682;50.874;3.656;2024-03-08T13:15:17;14.00;99.90
21047;DHT22;10682;50.874;3.656;2024-03-08T13:17:48;14.00;99.90
21047;DHT22;10682;50.874;3.656;2024-03-08T13:20:16;14.00;99.90
21047;DHT22;10682;50.874;3.656;2024-03-08T13:22:56;13.80;99.90
21047;DHT22;10682;50.874;3.656;2024-03-08T13:25:25;13.70;99.90
21047;DHT22;10682;50.874;3.656;2024-03-08T13:27:53;13.70;99.90
21047;DHT22;10682;50.874;3.656;2024-03-08T13:30:23;13.80;99.90
21047;DHT22;10682;50.874;3.656;2024-03-08T13:32:53;13.90;99.90
21047;DHT22;10682;50.874;3.656;2024-03-08T13:35:21;13.90;99.90
21047;DHT22;10682;50.874;3.656;2024-03-08T13:37:53;14.00;99.90
21047;DHT22;10682;50.874;3.656;2024-03-08T13:40:20;14.10;99.90
21047;DHT22;10682;50.874;3.656;2024-03-08T13:42:48;14.30;99.90
21047;DHT22;10682;50.874;3.656;2024-03-08T13:45:16;14.40;99.90
21047;DHT22;10682;50.874;3.656;2024-03-08T13:47:51;14.40;99.90
21047;DHT22;10682;50.874;3.656;2024-03-08T13:50:21;14.30;99.90
21047;DHT22;10682;50.874;3.656;2024-03-08T13:52:50;14.20;99.90
21047;DHT22;10682;50.874;3.656;2024-03-08T13:55:23;14.00;99.90
21047;DHT22;10682;50.874;3.656;2024-03-08T13:57:53;14.10;99.90
21047;DHT22;10682;50.874;3.656;2024-03-08T14:00:20;14.10;99.90
21047;DHT22;10682;50.874;3.656;2024-03-08T14:02:50;14.00;99.90
21047;DHT22;10682;50.874;3.656;2024-03-08T14:05:17;13.80;99.90
21047;DHT22;10682;50.874;3.656;2024-03-08T14:07:46;13.70;99.90
21047;DHT22;10682;50.874;3.656;2024-03-08T14:10:17;13.60;99.90
21047;DHT22;10682;50.874;3.656;2024-03-08T14:12:49;13.60;99.90
21047;DHT22;10682;50.874;3.656;2024-03-08T14:15:18;13.60;99.90
21047;DHT22;10682;50.874;3.656;2024-03-08T14:17:52;13.60;99.90
21047;DHT22;10682;50.874;3.656;2024-03-08T14:20:22;13.70;99.90
21047;DHT22;10682;50.874;3.656;2024-03-08T14:22:53;13.80;99.90
21047;DHT22;10682;50.874;3.656;2024-03-08T14:25:26;13.80;99.90
21047;DHT22;10682;50.874;3.656;2024-03-08T14:27:58;13.80;99.90
21047;DHT22;10682;50.874;3.656;2024-03-08T14:30:28;13.80;99.90
21047;DHT22;10682;50.874;3.656;2024-03-08T14:32:59;13.80;99.90
21047;DHT22;10682;50.874;3.656;2024-03-08T14:35:26;13.80;99.90
21047;DHT22;10682;50.874;3.656;2024-03-08T14:37:54;13.60;99.90
21047;DHT22;10682;50.874;3.656;2024-03-08T14:40:21;13.50;99.90
21047;DHT22;10682;50.874;3.656;2024-03-08T14:42:52;13.50;99.90
21047;DHT22;10682;50.874;3.656;2024-03-08T14:45:19;13.50;99.90
21047;DHT22;10682;50.874;3.656;2024-03-08T14:48:03;13.50;99.90
21047;DHT22;10682;50.874;3.656;2024-03-08T14:58:02;13.30;99.90
21047;DHT22;10682;50.874;3.656;2024-03-08T15:00:49;13.30;99.90
21047;DHT22;10682;50.874;3.656;2024-03-08T15:03:21;13.20;99.90
21047;DHT22;10682;50.874;3.656;2024-03-08T15:05:53;13.20;99.90
21047;DHT22;10682;50.874;3.656;2024-03-08T15:08:20;13.20;99.90
21047;DHT22;10682;50.874;3.656;2024-03-08T15:10:51;13.10;99.90
21047;DHT22;10682;50.874;3.656;2024-03-08T15:13:22;13.10;99.90
21047;DHT22;10682;50.874;3.656;2024-03-08T15:15:55;13.10;99.90
21047;DHT22;10682;50.874;3.656;2024-03-08T15:18:24;13.20;99.90
21047;DHT22;10682;50.874;3.656;2024-03-08T15:21:05;13.20;99.90
21047;DHT22;10682;50.874;3.656;2024-03-08T15:23:36;13.20;99.90
21047;DHT22;10682;50.874;3.656;2024-03-08T15:26:04;13.10;99.90
21047;DHT22;10682;50.874;3.656;2024-03-08T15:28:34;13.10;99.90
21047;DHT22;10682;50.874;3.656;2024-03-08T15:31:06;13.20;99.90
21047;DHT22;10682;50.874;3.656;2024-03-08T15:33:34;13.20;99.90
21047;DHT22;10682;50.874;3.656;2024-03-08T15:36:11;13.10;99.90
21047;DHT22;10682;50.874;3.656;2024-03-08T15:38:41;13.10;99.90
21047;DHT22;10682;50.874;3.656;2024-03-08T15:41:18;13.00;99.90
21047;DHT22;10682;50.874;3.656;2024-03-08T15:43:47;13.00;99.90
21047;DHT22;10682;50.874;3.656;2024-03-08T15:46:15;13.00;99.90
21047;DHT22;10682;50.874;3.656;2024-03-08T15:48:42;12.90;99.90
21047;DHT22;10682;50.874;3.656;2024-03-08T15:51:10;12.90;99.90
21047;DHT22;10682;50.874;3.656;2024-03-08T15:53:39;12.90;99.90
21047;DHT22;10682;50.874;3.656;2024-03-08T15:56:07;12.80;99.90
21047;DHT22;10682;50.874;3.656;2024-03-08T15:58:36;12.70;99.90
21047;DHT22;10682;50.874;3.656;2024-03-08T16:01:04;12.70;99.90
21047;DHT22;10682;50.874;3.656;2024-03-08T16:03:33;12.60;99.90
21047;DHT22;10682;50.874;3.656;2024-03-08T16:06:00;12.50;99.90
21047;DHT22;10682;50.874;3.656;2024-03-08T16:08:28;12.50;99.90
21047;DHT22;10682;50.874;3.656;2024-03-08T16:10:55;12.40;99.90
21047;DHT22;10682;50.874;3.656;2024-03-08T16:13:24;12.40;99.90
21047;DHT22;10682;50.874;3.656;2024-03-08T16:15:54;12.30;99.90
21047;DHT22;10682;50.874;3.656;2024-03-08T16:18:22;12.30;99.90
21047;DHT22;10682;50.874;3.656;2024-03-08T16:20:55;12.20;99.90
21047;DHT22;10682;50.874;3.656;2024-03-08T16:23:24;12.20;99.90
21047;DHT22;10682;50.874;3.656;2024-03-08T16:25:51;12.20;99.90
21047;DHT22;10682;50.874;3.656;2024-03-08T16:28:20;12.10;99.90
21047;DHT22;10682;50.874;3.656;2024-03-08T16:30:55;12.00;99.90
21047;DHT22;10682;50.874;3.656;2024-03-08T16:33:23;12.00;99.90
21047;DHT22;10682;50.874;3.656;2024-03-08T16:35:57;11.90;99.90
21047;DHT22;10682;50.874;3.656;2024-03-08T16:38:24;11.80;99.90
21047;DHT22;10682;50.874;3.656;2024-03-08T16:44:05;11.80;99.90
21047;DHT22;10682;50.874;3.656;2024-03-08T16:46:32;11.70;99.90
21047;DHT22;10682;50.874;3.656;2024-03-08T16:49:04;11.70;99.90
21047;DHT22;10682;50.874;3.656;2024-03-08T16:51:32;11.60;99.90
21047;DHT22;10682;50.874;3.656;2024-03-08T16:53:59;11.50;99.90